sensor_id;sensor_type;location;lat;lon;timestamp;temperature;humidity
1063;DHT22;520;50.932;6.962;2023-05-13T00:00:32;17.10;99.90
1063;DHT22;520;50.932;6.962;2023-05-13T00:03:21;17.10;99.90
1063;DHT22;520;50.932;6.962;2023-05-13T00:05:59;17.00;99.90
1063;DHT22;520;50.932;6.962;2023-05-13T00:08:44;17.00;99.90
1063;DHT22;520;50.932;6.962;2023-05-13T00:11:22;16.90;99.90
1063;DHT22;520;50.932;6.962;2023-05-13T00:14:05;17.00;99.90
1063;DHT22;520;50.932;6.962;2023-05-13T00:16:35;17.00;99.90
1063;DHT22;520;50.932;6.962;2023-05-13T00:19:04;17.00;99.90
1063;DHT22;520;50.932;6.962;2023-05-13T00:21:34;16.90;99.90
1063;DHT22;520;50.932;6.962;2023-05-13T00:24:09;16.90;99.90
1063;DHT22;520;50.932;6.962;2023-05-13T00:26:37;16.90;99.90
1063;DHT22;520;50.932;6.962;2023-05-13T00:29:13;16.90;99.90
1063;DHT22;520;50.932;6.962;2023-05-13T00:31:55;16.90;99.90
1063;DHT22;520;50.932;6.962;2023-05-13T00:34:32;16.90;99.90
1063;DHT22;520;50.932;6.962;2023-05-13T00:37:02;16.80;99.90
1063;DHT22;520;50.932;6.962;2023-05-13T00:39:37;16.80;99.90
1063;DHT22;520;50.932;6.962;2023-05-13T00:42:09;16.70;99.90
1063;DHT22;520;50.932;6.962;2023-05-13T00:44:51;16.70;99.90
1063;DHT22;520;50.932;6.962;2023-05-13T00:47:19;16.60;99.90
1063;DHT22;520;50.932;6.962;2023-05-13T00:49:53;16.60;99.90
1063;DHT22;520;50.932;6.962;2023-05-13T00:52:27;16.60;99.90
1063;DHT22;520;50.932;6.962;2023-05-13T00:55:00;16.60;99.90
1063;DHT22;520;50.932;6.962;2023-05-13T00:57:35;16.60;99.90
1063;DHT22;520;50.932;6.962;2023-05-13T01:00:05;16.80;99.90
1063;DHT22;520;50.932;6.962;2023-05-13T01:10:51;16.60;99.90
1063;DHT22;520;50.932;6.962;2023-05-13T01:13:35;16.60;99.90
1063;DHT22;520;50.932;6.962;2023-05-13T01:16:36;16.50;99.90
1063;DHT22;520;50.932;6.962;2023-05-13T01:19:27;16.50;99.90
1063;DHT22;520;50.932;6.962;2023-05-13T01:22:01;16.40;99.90
1063;DHT22;520;50.932;6.962;2023-05-13T01:24:33;16.30;99.90
1063;DHT22;520;50.932;6.962;2023-05-13T01:27:02;16.20;99.90
1063;DHT22;520;50.932;6.962;2023-05-13T01:29:37;16.20;99.90
1063;DHT22;520;50.932;6.962;2023-05-13T01:32:07;16.20;99.90
1063;DHT22;520;50.932;6.962;2023-05-13T01:34:44;16.10;99.90
1063;DHT22;520;50.932;6.962;2023-05-13T01:37:13;16.20;99.90
1063;DHT22;520;50.932;6.962;2023-05-13T01:39:47;16.20;99.90
1063;DHT22;520;50.932;6.962;2023-05-13T01:42:22;16.10;99.90
1063;DHT22;520;50.932;6.962;2023-05-13T01:44:52;16.10;99.90
1063;DHT22;520;50.932;6.962;2023-05-13T01:47:28;16.10;99.90
1063;DHT22;520;50.932;6.962;2023-05-13T01:49:55;16.20;99.90
1063;DHT22;520;50.932;6.962;2023-05-13T01:52:36;16.20;99.90
1063;DHT22;520;50.932;6.962;2023-05-13T01:55:14;16.10;99.90
1063;DHT22;520;50.932;6.962;2023-05-13T01:57:56;16.00;99.90
1063;DHT22;520;50.932;6.962;2023-05-13T02:00:44;16.00;99.90
1063;DHT22;520;50.932;6.962;2023-05-13T02:03:19;15.90;99.90
1063;DHT22;520;50.932;6.962;2023-05-13T02:05:48;15.90;99.90
1063;DHT22;520;50.932;6.962;2023-05-13T02:08:30;15.90;99.90
1063;DHT22;520;50.932;6.962;2023-05-13T02:11:17;15.80;99.90
1063;DHT22;520;50.932;6.962;2023-05-13T02:13:54;15.80;99.90
1063;DHT22;520;50.932;6.962;2023-05-13T02:16:32;15.80;99.90
1063;DHT22;520;50.932;6.962;2023-05-13T02:19:05;15.80;99.90
1063;DHT22;520;50.932;6.962;2023-05-13T02:21:47;15.80;99.90
1063;DHT22;520;50.932;6.962;2023-05-13T02:24:28;16.00;99.90
1063;DHT22;520;50.932;6.962;2023-05-13T02:27:03;16.30;99.90
1063;DHT22;520;50.932;6.962;2023-05-13T02:29:52;16.10;99.90
1063;DHT22;520;50.932;6.962;2023-05-13T02:32:42;16.10;99.90
1063;DHT22;520;50.932;6.962;2023-05-13T02:35:22;15.90;99.90
1063;DHT22;520;50.932;6.962;2023-05-13T02:38:06;15.80;99.90
1063;DHT22;520;50.932;6.962;2023-05-13T02:40:43;15.80;99.90
1063;DHT22;520;50.932;6.962;2023-05-13T02:43:16;15.80;99.90
1063;DHT22;520;50.932;6.962;2023-05-13T02:46:05;15.80;99.90
1063;DHT22;520;50.932;6.962;2023-05-13T02:48:51;15.90;99.90
1063;DHT22;520;50.932;6.962;2023-05-13T02:51:32;15.90;99.90
1063;DHT22;520;50.932;6.962;2023-05-13T02:54:05;15.70;99.90
1063;DHT22;520;50.932;6.962;2023-05-13T02:56:36;15.70;99.90
1063;DHT22;520;50.932;6.962;2023-05-13T02:59:10;15.70;99.90
1063;DHT22;520;50.932;6.962;2023-05-13T03:01:42;15.70;99.90
1063;DHT22;520;50.932;6.962;2023-05-13T03:04:30;15.60;99.90
1063;DHT22;520;50.932;6.962;2023-05-13T03:07:08;15.70;99.90
1063;DHT22;520;50.932;6.962;2023-05-13T03:09:43;15.60;99.90
1063;DHT22;520;50.932;6.962;2023-05-13T03:12:36;15.60;99.90
1063;DHT22;520;50.932;6.962;2023-05-13T03:15:16;15.50;99.90
1063;DHT22;520;50.932;6.962;2023-05-13T03:17:46;15.50;99.90
1063;DHT22;520;50.932;6.962;2023-05-13T03:20:23;15.50;99.90
1063;DHT22;520;50.932;6.962;2023-05-13T03:22:57;15.50;99.90
1063;DHT22;520;50.932;6.962;2023-05-13T03:25:32;15.50;99.90
1063;DHT22;520;50.932;6.962;2023-05-13T03:27:59;15.60;99.90
1063;DHT22;520;50.932;6.962;2023-05-13T03:30:29;15.60;99.90
1063;DHT22;520;50.932;6.962;2023-05-13T03:32:56;15.70;99.90
1063;DHT22;520;50.932;6.962;2023-05-13T03:35:35;15.70;99.90
1063;DHT22;520;50.932;6.962;2023-05-13T03:38:09;15.60;99.90
1063;DHT22;520;50.932;6.962;2023-05-13T03:41:00;15.50;99.90
1063;DHT22;520;50.932;6.962;2023-05-13T03:43:39;15.50;99.90
1063;DHT22;520;50.932;6.962;2023-05-13T03:46:23;15.70;99.90
1063;DHT22;520;50.932;6.962;2023-05-13T03:49:09;15.90;99.90
1063;DHT22;520;50.932;6.962;2023-05-13T03:51:47;15.60;99.90
1063;DHT22;520;50.932;6.962;2023-05-13T03:54:26;15.30;99.90
1063;DHT22;520;50.932;6.962;2023-05-13T03:56:56;15.10;99.90
1063;DHT22;520;50.932;6.962;2023-05-13T03:59:36;15.00;99.90
1063;DHT22;520;50.932;6.962;2023-05-13T04:02:07;14.90;99.90
1063;DHT22;520;50.932;6.962;2023-05-13T04:04:41;14.80;99.90
1063;DHT22;520;50.932;6.962;2023-05-13T04:07:11;14.90;99.90
1063;DHT22;520;50.932;6.962;2023-05-13T04:09:42;14.80;99.90
1063;DHT22;520;50.932;6.962;2023-05-13T04:12:36;14.80;99.90
1063;DHT22;520;50.932;6.962;2023-05-13T04:15:07;14.90;99.90
1063;DHT22;520;50.932;6.962;2023-05-13T04:17:36;15.10;99.90
1063;DHT22;520;50.932;6.962;2023-05-13T04:20:21;15.00;99.90
1063;DHT22;520;50.932;6.962;2023-05-13T04:22:57;15.00;99.90
1063;DHT22;520;50.932;6.962;2023-05-13T04:25:30;14.90;99.90
1063;DHT22;520;50.932;6.962;2023-05-13T04:28:04;14.90;99.90
1063;DHT22;520;50.932;6.962;2023-05-13T04:30:35;14.90;99.90
1063;DHT22;520;50.932;6.962;2023-05-13T04:33:07;15.00;99.90
1063;DHT22;520;50.932;6.962;2023-05-13T04:35:45;15.10;99.90
1063;DHT22;520;50.932;6.962;2023-05-13T04:38:26;15.20;99.90
1063;DHT22;520;50.932;6.962;2023-05-13T04:41:11;15.30;99.90
1063;DHT22;520;50.932;6.962;2023-05-13T04:43:54;15.30;99.90
1063;DHT22;520;50.932;6.962;2023-05-13T04:46:30;15.20;99.90
1063;DHT22;520;50.932;6.962;2023-05-13T04:49:06;15.10;99.90
1063;DHT22;520;50.932;6.962;2023-05-13T04:51:37;15.10;99.90
1063;DHT22;520;50.932;6.962;2023-05-13T04:54:13;15.00;99.90
1063;DHT22;520;50.932;6.962;2023-05-13T04:59:37;15.00;99.90
1063;DHT22;520;50.932;6.962;2023-05-13T05:02:18;15.10;99.90
1063;DHT22;520;50.932;6.962;2023-05-13T05:04:51;15.30;99.90
1063;DHT22;520;50.932;6.962;2023-05-13T05:07:27;15.50;99.90
1063;DHT22;520;50.932;6.962;2023-05-13T05:10:00;15.60;99.90
1063;DHT22;520;50.932;6.962;2023-05-13T05:12:46;15.50;99.90
1063;DHT22;520;50.932;6.962;2023-05-13T05:15:32;15.70;99.90
1063;DHT22;520;50.932;6.962;2023-05-13T05:18:05;15.60;99.90
1063;DHT22;520;50.932;6.962;2023-05-13T05:20:41;15.90;99.90
1063;DHT22;520;50.932;6.962;2023-05-13T05:23:19;15.80;99.90
1063;DHT22;520;50.932;6.962;2023-05-13T05:25:48;16.00;99.90
1063;DHT22;520;50.932;6.962;2023-05-13T05:28:32;15.90;99.90
1063;DHT22;520;50.932;6.962;2023-05-13T05:31:04;15.80;99.90
1063;DHT22;520;50.932;6.962;2023-05-13T05:33:53;15.70;99.90
1063;DHT22;520;50.932;6.962;2023-05-13T05:36:39;15.50;99.90
1063;DHT22;520;50.932;6.962;2023-05-13T05:39:16;15.80;99.90
1063;DHT22;520;50.932;6.962;2023-05-13T05:44:21;15.80;99.90
1063;DHT22;520;50.932;6.962;2023-05-13T05:46:48;15.70;99.90
1063;DHT22;520;50.932;6.962;2023-05-13T05:49:21;15.80;99.90
1063;DHT22;520;50.932;6.962;2023-05-13T05:51:54;15.60;99.90
1063;DHT22;520;50.932;6.962;2023-05-13T05:54:27;15.80;99.90
1063;DHT22;520;50.932;6.962;2023-05-13T05:57:01;16.00;99.90
1063;DHT22;520;50.932;6.962;2023-05-13T05:59:31;16.10;99.90
1063;DHT22;520;50.932;6.962;2023-05-13T06:02:06;16.10;99.90
1063;DHT22;520;50.932;6.962;2023-05-13T06:04:42;15.90;99.90
1063;DHT22;520;50.932;6.962;2023-05-13T06:07:16;15.90;99.90
1063;DHT22;520;50.932;6.962;2023-05-13T06:09:46;16.10;99.90
1063;DHT22;520;50.932;6.962;2023-05-13T06:12:18;16.20;99.90
1063;DHT22;520;50.932;6.962;2023-05-13T06:14:51;16.30;99.90
1063;DHT22;520;50.932;6.962;2023-05-13T06:17:22;16.10;99.90
1063;DHT22;520;50.932;6.962;2023-05-13T06:19:52;16.00;99.90
1063;DHT22;520;50.932;6.962;2023-05-13T06:22:26;16.40;99.90
1063;DHT22;520;50.932;6.962;2023-05-13T06:25:03;16.60;99.90
1063;DHT22;520;50.932;6.962;2023-05-13T06:27:36;16.70;99.90
1063;DHT22;520;50.932;6.962;2023-05-13T06:30:13;16.60;99.90
1063;DHT22;520;50.932;6.962;2023-05-13T06:35:33;16.70;99.90
1063;DHT22;520;50.932;6.962;2023-05-13T06:38:09;16.80;99.90
1063;DHT22;520;50.932;6.962;2023-05-13T06:40:44;17.10;99.90
1063;DHT22;520;50.932;6.962;2023-05-13T06:43:19;17.30;99.90
1063;DHT22;520;50.932;6.962;2023-05-13T06:45:49;17.10;99.90
1063;DHT22;520;50.932;6.962;2023-05-13T06:48:21;17.10;99.90
1063;DHT22;520;50.932;6.962;2023-05-13T06:50:53;17.30;99.90
1063;DHT22;520;50.932;6.962;2023-05-13T06:53:35;17.40;99.90
1063;DHT22;520;50.932;6.962;2023-05-13T06:56:11;17.40;99.90
1063;DHT22;520;50.932;6.962;2023-05-13T06:58:46;17.40;99.50
1063;DHT22;520;50.932;6.962;2023-05-13T07:01:20;17.50;99.20
1063;DHT22;520;50.932;6.962;2023-05-13T07:03:58;17.50;98.20
1063;DHT22;520;50.932;6.962;2023-05-13T07:06:38;17.60;98.40
1063;DHT22;520;50.932;6.962;2023-05-13T07:09:08;17.50;98.60
1063;DHT22;520;50.932;6.962;2023-05-13T07:11:58;17.40;99.30
1063;DHT22;520;50.932;6.962;2023-05-13T07:14:40;17.50;99.30
1063;DHT22;520;50.932;6.962;2023-05-13T07:17:11;17.70;99.20
1063;DHT22;520;50.932;6.962;2023-05-13T07:19:57;17.60;98.90
1063;DHT22;520;50.932;6.962;2023-05-13T07:22:43;17.90;98.70
1063;DHT22;520;50.932;6.962;2023-05-13T07:25:28;17.70;98.40
1063;DHT22;520;50.932;6.962;2023-05-13T07:28:09;17.90;98.80
1063;DHT22;520;50.932;6.962;2023-05-13T07:30:49;18.10;98.10
1063;DHT22;520;50.932;6.962;2023-05-13T07:33:34;18.30;97.40
1063;DHT22;520;50.932;6.962;2023-05-13T07:36:09;18.80;96.10
1063;DHT22;520;50.932;6.962;2023-05-13T07:39:20;18.60;96.20
1063;DHT22;520;50.932;6.962;2023-05-13T07:42:14;18.90;94.00
1063;DHT22;520;50.932;6.962;2023-05-13T07:45:25;18.90;93.40
1063;DHT22;520;50.932;6.962;2023-05-13T07:48:31;19.30;93.40
1063;DHT22;520;50.932;6.962;2023-05-13T07:51:09;19.50;92.70
1063;DHT22;520;50.932;6.962;2023-05-13T07:57:08;19.30;92.80
1063;DHT22;520;50.932;6.962;2023-05-13T07:59:48;19.40;92.50
1063;DHT22;520;50.932;6.962;2023-05-13T08:02:26;19.50;92.30
1063;DHT22;520;50.932;6.962;2023-05-13T08:05:25;19.40;92.70
1063;DHT22;520;50.932;6.962;2023-05-13T08:11:32;19.20;92.30
1063;DHT22;520;50.932;6.962;2023-05-13T08:14:55;19.50;91.50
1063;DHT22;520;50.932;6.962;2023-05-13T08:18:26;20.00;91.80
1063;DHT22;520;50.932;6.962;2023-05-13T08:21:31;23.30;87.50
1063;DHT22;520;50.932;6.962;2023-05-13T08:24:29;24.50;74.10
1063;DHT22;520;50.932;6.962;2023-05-13T08:27:33;23.50;75.60
1063;DHT22;520;50.932;6.962;2023-05-13T08:30:56;23.90;74.70
1063;DHT22;520;50.932;6.962;2023-05-13T08:33:47;25.00;70.60
1063;DHT22;520;50.932;6.962;2023-05-13T08:37:26;24.40;70.20
1063;DHT22;520;50.932;6.962;2023-05-13T08:40:28;23.60;71.10
1063;DHT22;520;50.932;6.962;2023-05-13T08:43:46;24.10;70.90
1063;DHT22;520;50.932;6.962;2023-05-13T08:46:49;26.60;65.00
1063;DHT22;520;50.932;6.962;2023-05-13T08:49:50;28.20;57.90
1063;DHT22;520;50.932;6.962;2023-05-13T08:53:13;29.30;54.60
1063;DHT22;520;50.932;6.962;2023-05-13T08:56:31;30.10;51.30
1063;DHT22;520;50.932;6.962;2023-05-13T09:02:47;30.20;48.80
1063;DHT22;520;50.932;6.962;2023-05-13T09:15:38;30.50;44.30
1063;DHT22;520;50.932;6.962;2023-05-13T09:19:29;31.20;43.10
1063;DHT22;520;50.932;6.962;2023-05-13T09:22:21;31.70;42.10
1063;DHT22;520;50.932;6.962;2023-05-13T09:25:27;31.80;39.80
1063;DHT22;520;50.932;6.962;2023-05-13T09:28:03;31.00;41.10
1063;DHT22;520;50.932;6.962;2023-05-13T09:30:38;31.70;40.90
1063;DHT22;520;50.932;6.962;2023-05-13T09:33:13;31.80;40.40
1063;DHT22;520;50.932;6.962;2023-05-13T09:35:43;31.60;40.00
1063;DHT22;520;50.932;6.962;2023-05-13T09:40:58;31.70;39.10
1063;DHT22;520;50.932;6.962;2023-05-13T09:43:31;32.40;38.20
1063;DHT22;520;50.932;6.962;2023-05-13T09:46:04;32.20;37.90
1063;DHT22;520;50.932;6.962;2023-05-13T09:48:34;32.10;38.90
1063;DHT22;520;50.932;6.962;2023-05-13T09:51:05;32.70;37.10
1063;DHT22;520;50.932;6.962;2023-05-13T09:53:33;32.70;37.00
1063;DHT22;520;50.932;6.962;2023-05-13T09:56:00;31.20;38.10
1063;DHT22;520;50.932;6.962;2023-05-13T09:58:28;30.40;38.80
1063;DHT22;520;50.932;6.962;2023-05-13T10:00:57;30.50;39.50
1063;DHT22;520;50.932;6.962;2023-05-13T10:03:27;30.90;39.30
1063;DHT22;520;50.932;6.962;2023-05-13T10:05:55;31.40;38.30
1063;DHT22;520;50.932;6.962;2023-05-13T10:08:29;31.00;39.30
1063;DHT22;520;50.932;6.962;2023-05-13T10:10:56;30.40;40.60
1063;DHT22;520;50.932;6.962;2023-05-13T10:13:25;30.00;41.20
1063;DHT22;520;50.932;6.962;2023-05-13T10:15:56;29.40;41.10
1063;DHT22;520;50.932;6.962;2023-05-13T10:18:27;28.80;42.60
1063;DHT22;520;50.932;6.962;2023-05-13T10:20:57;28.10;43.60
1063;DHT22;520;50.932;6.962;2023-05-13T10:23:25;27.20;45.30
1063;DHT22;520;50.932;6.962;2023-05-13T10:25:53;26.70;46.20
1063;DHT22;520;50.932;6.962;2023-05-13T10:28:23;26.50;47.70
1063;DHT22;520;50.932;6.962;2023-05-13T10:30:50;27.30;47.20
1063;DHT22;520;50.932;6.962;2023-05-13T10:33:18;27.60;47.30
1063;DHT22;520;50.932;6.962;2023-05-13T10:39:07;26.80;48.50
1063;DHT22;520;50.932;6.962;2023-05-13T10:44:21;26.50;49.50
1063;DHT22;520;50.932;6.962;2023-05-13T10:46:49;26.10;49.40
1063;DHT22;520;50.932;6.962;2023-05-13T10:49:16;25.70;50.00
1063;DHT22;520;50.932;6.962;2023-05-13T10:51:47;25.30;50.60
1063;DHT22;520;50.932;6.962;2023-05-13T10:54:19;24.80;51.70
1063;DHT22;520;50.932;6.962;2023-05-13T10:56:57;24.40;53.00
1063;DHT22;520;50.932;6.962;2023-05-13T10:59:25;24.20;54.50
1063;DHT22;520;50.932;6.962;2023-05-13T11:01:56;23.40;55.30
1063;DHT22;520;50.932;6.962;2023-05-13T11:04:23;23.00;56.10
1063;DHT22;520;50.932;6.962;2023-05-13T11:06:52;22.80;56.70
1063;DHT22;520;50.932;6.962;2023-05-13T11:11:48;23.00;57.50
1063;DHT22;520;50.932;6.962;2023-05-13T11:14:18;23.10;57.40
1063;DHT22;520;50.932;6.962;2023-05-13T11:16:53;23.10;57.70
1063;DHT22;520;50.932;6.962;2023-05-13T11:19:24;23.10;58.00
1063;DHT22;520;50.932;6.962;2023-05-13T11:24:30;22.90;57.50
1063;DHT22;520;50.932;6.962;2023-05-13T11:26:58;23.10;53.00
1063;DHT22;520;50.932;6.962;2023-05-13T11:29:37;22.70;53.40
1063;DHT22;520;50.932;6.962;2023-05-13T11:32:06;21.90;53.90
1063;DHT22;520;50.932;6.962;2023-05-13T11:34:33;21.00;55.50
1063;DHT22;520;50.932;6.962;2023-05-13T11:39:32;20.10;61.70
1063;DHT22;520;50.932;6.962;2023-05-13T11:41:59;19.40;60.30
1063;DHT22;520;50.932;6.962;2023-05-13T11:44:29;18.90;61.20
1063;DHT22;520;50.932;6.962;2023-05-13T11:47:02;18.80;63.10
1063;DHT22;520;50.932;6.962;2023-05-13T11:49:38;18.80;63.50
1063;DHT22;520;50.932;6.962;2023-05-13T11:52:10;18.90;64.50
1063;DHT22;520;50.932;6.962;2023-05-13T11:54:47;18.80;65.10
1063;DHT22;520;50.932;6.962;2023-05-13T12:06:44;19.30;66.80
1063;DHT22;520;50.932;6.962;2023-05-13T12:09:24;19.50;67.50
1063;DHT22;520;50.932;6.962;2023-05-13T12:15:48;19.50;69.10
1063;DHT22;520;50.932;6.962;2023-05-13T12:29:10;19.80;68.40
1063;DHT22;520;50.932;6.962;2023-05-13T12:32:07;20.20;65.90
1063;DHT22;520;50.932;6.962;2023-05-13T12:35:01;20.20;57.70
1063;DHT22;520;50.932;6.962;2023-05-13T12:37:56;20.30;59.60
1063;DHT22;520;50.932;6.962;2023-05-13T12:41:10;20.00;63.20
1063;DHT22;520;50.932;6.962;2023-05-13T12:46:51;19.70;56.30
1063;DHT22;520;50.932;6.962;2023-05-13T12:49:29;19.90;53.20
1063;DHT22;520;50.932;6.962;2023-05-13T12:52:15;20.00;53.80
1063;DHT22;520;50.932;6.962;2023-05-13T12:54:52;20.20;52.10
1063;DHT22;520;50.932;6.962;2023-05-13T12:57:30;20.20;52.70
1063;DHT22;520;50.932;6.962;2023-05-13T13:00:17;20.50;52.40
1063;DHT22;520;50.932;6.962;2023-05-13T13:03:05;20.70;52.00
1063;DHT22;520;50.932;6.962;2023-05-13T13:05:57;21.10;53.30
1063;DHT22;520;50.932;6.962;2023-05-13T13:09:07;21.60;53.10
1063;DHT22;520;50.932;6.962;2023-05-13T13:11:54;22.20;52.30
1063;DHT22;520;50.932;6.962;2023-05-13T13:15:00;22.40;50.50
1063;DHT22;520;50.932;6.962;2023-05-13T13:20:37;22.70;51.50
1063;DHT22;520;50.932;6.962;2023-05-13T13:23:32;22.40;50.00
1063;DHT22;520;50.932;6.962;2023-05-13T13:26:16;22.70;48.80
1063;DHT22;520;50.932;6.962;2023-05-13T13:29:05;22.50;49.20
1063;DHT22;520;50.932;6.962;2023-05-13T13:32:07;22.40;48.80
1063;DHT22;520;50.932;6.962;2023-05-13T13:35:01;22.50;49.60
1063;DHT22;520;50.932;6.962;2023-05-13T13:37:47;22.70;48.90
1063;DHT22;520;50.932;6.962;2023-05-13T13:41:00;22.90;48.80
1063;DHT22;520;50.932;6.962;2023-05-13T13:43:55;23.40;48.30
1063;DHT22;520;50.932;6.962;2023-05-13T13:47:30;23.80;46.60
1063;DHT22;520;50.932;6.962;2023-05-13T13:50:19;24.40;46.20
1063;DHT22;520;50.932;6.962;2023-05-13T13:56:26;25.10;43.40
1063;DHT22;520;50.932;6.962;2023-05-13T13:59:01;24.50;49.40
1063;DHT22;520;50.932;6.962;2023-05-13T14:01:44;23.80;52.60
1063;DHT22;520;50.932;6.962;2023-05-13T14:04:59;23.30;53.90
1063;DHT22;520;50.932;6.962;2023-05-13T14:07:52;23.40;54.70
1063;DHT22;520;50.932;6.962;2023-05-13T14:10:34;23.30;53.10
1063;DHT22;520;50.932;6.962;2023-05-13T14:13:02;23.20;57.70
1063;DHT22;520;50.932;6.962;2023-05-13T14:15:29;23.00;58.00
1063;DHT22;520;50.932;6.962;2023-05-13T14:17:57;22.90;57.50
1063;DHT22;520;50.932;6.962;2023-05-13T14:20:24;22.60;56.40
1063;DHT22;520;50.932;6.962;2023-05-13T14:22:51;22.60;57.30
1063;DHT22;520;50.932;6.962;2023-05-13T14:25:18;22.60;56.90
1063;DHT22;520;50.932;6.962;2023-05-13T14:27:44;22.70;58.00
1063;DHT22;520;50.932;6.962;2023-05-13T14:30:11;22.50;60.20
1063;DHT22;520;50.932;6.962;2023-05-13T14:32:40;22.30;61.80
1063;DHT22;520;50.932;6.962;2023-05-13T14:35:13;21.80;63.20
1063;DHT22;520;50.932;6.962;2023-05-13T14:37:44;21.40;64.20
1063;DHT22;520;50.932;6.962;2023-05-13T14:40:12;21.20;64.10
1063;DHT22;520;50.932;6.962;2023-05-13T14:42:40;21.00;63.80
1063;DHT22;520;50.932;6.962;2023-05-13T14:45:07;20.90;62.60
1063;DHT22;520;50.932;6.962;2023-05-13T14:47:36;20.70;63.70
1063;DHT22;520;50.932;6.962;2023-05-13T14:50:03;20.80;62.80
1063;DHT22;520;50.932;6.962;2023-05-13T14:52:33;20.70;62.30
1063;DHT22;520;50.932;6.962;2023-05-13T14:55:00;20.60;63.10
1063;DHT22;520;50.932;6.962;2023-05-13T14:57:27;20.50;63.60
1063;DHT22;520;50.932;6.962;2023-05-13T14:59:55;20.70;63.30
1063;DHT22;520;50.932;6.962;2023-05-13T15:02:24;20.70;63.00
1063;DHT22;520;50.932;6.962;2023-05-13T15:04:51;20.90;61.50
1063;DHT22;520;50.932;6.962;2023-05-13T15:07:18;20.90;62.30
1063;DHT22;520;50.932;6.962;2023-05-13T15:09:45;21.20;61.50
1063;DHT22;520;50.932;6.962;2023-05-13T15:12:12;21.50;60.40
1063;DHT22;520;50.932;6.962;2023-05-13T15:14:40;21.70;60.20
1063;DHT22;520;50.932;6.962;2023-05-13T15:17:07;21.70;57.70
1063;DHT22;520;50.932;6.962;2023-05-13T15:19:38;21.70;58.20
1063;DHT22;520;50.932;6.962;2023-05-13T15:22:05;21.70;58.90
1063;DHT22;520;50.932;6.962;2023-05-13T15:24:34;21.80;59.00
1063;DHT22;520;50.932;6.962;2023-05-13T15:27:01;22.00;58.20
1063;DHT22;520;50.932;6.962;2023-05-13T15:29:29;21.80;57.60
1063;DHT22;520;50.932;6.962;2023-05-13T15:31:57;21.70;58.00
1063;DHT22;520;50.932;6.962;2023-05-13T15:34:24;21.90;58.10
1063;DHT22;520;50.932;6.962;2023-05-13T15:36:52;21.90;58.20
1063;DHT22;520;50.932;6.962;2023-05-13T15:39:20;21.80;58.30
1063;DHT22;520;50.932;6.962;2023-05-13T15:41:47;21.80;58.30
1063;DHT22;520;50.932;6.962;2023-05-13T15:44:14;21.80;57.90
1063;DHT22;520;50.932;6.962;2023-05-13T15:46:41;21.90;57.80
1063;DHT22;520;50.932;6.962;2023-05-13T15:49:08;21.80;57.50
1063;DHT22;520;50.932;6.962;2023-05-13T15:51:36;21.70;58.00
1063;DHT22;520;50.932;6.962;2023-05-13T15:54:03;21.70;58.10
1063;DHT22;520;50.932;6.962;2023-05-13T15:57:16;21.70;57.80
1063;DHT22;520;50.932;6.962;2023-05-13T16:00:02;21.50;57.80
1063;DHT22;520;50.932;6.962;2023-05-13T16:03:09;21.50;57.90
1063;DHT22;520;50.932;6.962;2023-05-13T16:06:07;21.90;55.80
1063;DHT22;520;50.932;6.962;2023-05-13T16:09:02;21.90;54.80
1063;DHT22;520;50.932;6.962;2023-05-13T16:12:09;21.80;54.10
1063;DHT22;520;50.932;6.962;2023-05-13T16:14:47;21.70;54.00
1063;DHT22;520;50.932;6.962;2023-05-13T16:18:10;21.80;54.60
1063;DHT22;520;50.932;6.962;2023-05-13T16:21:23;21.70;54.60
1063;DHT22;520;50.932;6.962;2023-05-13T16:24:47;21.60;55.00
1063;DHT22;520;50.932;6.962;2023-05-13T16:27:39;21.80;55.70
1063;DHT22;520;50.932;6.962;2023-05-13T16:30:33;21.80;55.40
1063;DHT22;520;50.932;6.962;2023-05-13T16:33:13;21.60;55.70
1063;DHT22;520;50.932;6.962;2023-05-13T16:36:12;21.50;55.30
1063;DHT22;520;50.932;6.962;2023-05-13T16:39:12;21.30;56.10
1063;DHT22;520;50.932;6.962;2023-05-13T16:41:52;21.30;56.40
1063;DHT22;520;50.932;6.962;2023-05-13T16:44:51;21.10;56.40
1063;DHT22;520;50.932;6.962;2023-05-13T16:47:53;21.00;56.70
1063;DHT22;520;50.932;6.962;2023-05-13T16:50:44;20.90;56.50
1063;DHT22;520;50.932;6.962;2023-05-13T16:53:33;20.90;56.70
1063;DHT22;520;50.932;6.962;2023-05-13T16:56:16;20.80;56.90
1063;DHT22;520;50.932;6.962;2023-05-13T16:59:41;20.80;57.20
1063;DHT22;520;50.932;6.962;2023-05-13T17:02:34;20.70;57.40
1063;DHT22;520;50.932;6.962;2023-05-13T17:05:39;20.90;57.70
1063;DHT22;520;50.932;6.962;2023-05-13T17:08:25;20.90;56.90
1063;DHT22;520;50.932;6.962;2023-05-13T17:11:22;20.80;57.30
1063;DHT22;520;50.932;6.962;2023-05-13T17:14:12;20.90;57.50
1063;DHT22;520;50.932;6.962;2023-05-13T17:17:09;20.90;57.10
1063;DHT22;520;50.932;6.962;2023-05-13T17:20:16;21.00;56.90
1063;DHT22;520;50.932;6.962;2023-05-13T17:26:01;20.70;56.90
1063;DHT22;520;50.932;6.962;2023-05-13T17:28:50;20.60;57.50
1063;DHT22;520;50.932;6.962;2023-05-13T17:31:39;20.60;57.20
1063;DHT22;520;50.932;6.962;2023-05-13T17:34:18;20.60;57.70
1063;DHT22;520;50.932;6.962;2023-05-13T17:37:28;20.60;57.70
1063;DHT22;520;50.932;6.962;2023-05-13T17:43:44;20.80;58.60
1063;DHT22;520;50.932;6.962;2023-05-13T17:46:38;20.80;58.60
1063;DHT22;520;50.932;6.962;2023-05-13T17:49:24;20.90;59.00
1063;DHT22;520;50.932;6.962;2023-05-13T17:52:35;20.90;58.40
1063;DHT22;520;50.932;6.962;2023-05-13T17:55:41;21.10;58.00
1063;DHT22;520;50.932;6.962;2023-05-13T17:58:55;21.40;57.10
1063;DHT22;520;50.932;6.962;2023-05-13T18:01:42;21.40;56.70
1063;DHT22;520;50.932;6.962;2023-05-13T18:04:29;21.40;56.30
1063;DHT22;520;50.932;6.962;2023-05-13T18:07:22;21.10;56.40
1063;DHT22;520;50.932;6.962;2023-05-13T18:10:11;21.10;56.90
1063;DHT22;520;50.932;6.962;2023-05-13T18:13:11;21.20;57.00
1063;DHT22;520;50.932;6.962;2023-05-13T18:16:20;21.30;56.90
1063;DHT22;520;50.932;6.962;2023-05-13T18:19:07;21.10;57.60
1063;DHT22;520;50.932;6.962;2023-05-13T18:22:13;21.00;58.00
1063;DHT22;520;50.932;6.962;2023-05-13T18:25:13;20.80;58.20
1063;DHT22;520;50.932;6.962;2023-05-13T18:28:23;20.90;58.30
1063;DHT22;520;50.932;6.962;2023-05-13T18:31:35;21.00;58.20
1063;DHT22;520;50.932;6.962;2023-05-13T18:34:40;20.90;58.50
1063;DHT22;520;50.932;6.962;2023-05-13T18:37:22;21.00;58.50
1063;DHT22;520;50.932;6.962;2023-05-13T18:44:36;20.80;58.90
1063;DHT22;520;50.932;6.962;2023-05-13T18:51:33;20.40;64.20
1063;DHT22;520;50.932;6.962;2023-05-13T18:54:11;20.30;65.60
1063;DHT22;520;50.932;6.962;2023-05-13T18:57:15;20.20;66.30
1063;DHT22;520;50.932;6.962;2023-05-13T19:00:14;20.20;68.50
1063;DHT22;520;50.932;6.962;2023-05-13T19:03:19;20.10;69.80
1063;DHT22;520;50.932;6.962;2023-05-13T19:09:27;20.00;71.90
1063;DHT22;520;50.932;6.962;2023-05-13T19:12:51;20.00;71.60
1063;DHT22;520;50.932;6.962;2023-05-13T19:15:33;20.00;71.50
1063;DHT22;520;50.932;6.962;2023-05-13T19:21:58;20.00;71.40
1063;DHT22;520;50.932;6.962;2023-05-13T19:25:10;20.10;71.20
1063;DHT22;520;50.932;6.962;2023-05-13T19:28:14;20.20;70.90
1063;DHT22;520;50.932;6.962;2023-05-13T19:34:42;19.90;72.10
1063;DHT22;520;50.932;6.962;2023-05-13T19:37:30;19.90;72.20
1063;DHT22;520;50.932;6.962;2023-05-13T19:40:44;19.80;72.40
1063;DHT22;520;50.932;6.962;2023-05-13T19:43:32;19.60;73.10